sensor_id;sensor_type;location;lat;lon;timestamp;noise_LAeq;noise_LA_min;noise_LA_max;noise_LA01;noise_LA95
68945;Laerm;55984;48.790;8.990;2023-09-30T00:00:18;49.00;48.05;49.95;;
68945;Laerm;55984;48.790;8.990;2023-09-30T00:02:44;48.98;48.01;49.97;;
68945;Laerm;55984;48.790;8.990;2023-09-30T00:05:10;49.00;47.89;49.87;;
68945;Laerm;55984;48.790;8.990;2023-09-30T00:07:36;48.98;47.99;49.97;;
68945;Laerm;55984;48.790;8.990;2023-09-30T00:10:02;48.98;48.08;50.15;;
68945;Laerm;55984;48.790;8.990;2023-09-30T00:12:28;48.96;48.05;49.88;;
68945;Laerm;55984;48.790;8.990;2023-09-30T00:14:54;48.96;47.88;49.97;;
68945;Laerm;55984;48.790;8.990;2023-09-30T00:17:20;48.97;47.87;49.90;;
68945;Laerm;55984;48.790;8.990;2023-09-30T00:19:46;48.97;48.03;49.84;;
68945;Laerm;55984;48.790;8.990;2023-09-30T00:22:12;48.95;47.70;49.94;;
68945;Laerm;55984;48.790;8.990;2023-09-30T00:24:38;48.96;47.80;49.80;;
68945;Laerm;55984;48.790;8.990;2023-09-30T00:27:04;48.96;47.97;49.84;;
68945;Laerm;55984;48.790;8.990;2023-09-30T00:29:30;48.95;48.13;50.01;;
68945;Laerm;55984;48.790;8.990;2023-09-30T00:31:56;48.96;47.61;50.04;;
68945;Laerm;55984;48.790;8.990;2023-09-30T00:34:22;48.94;48.00;49.86;;
68945;Laerm;55984;48.790;8.990;2023-09-30T00:36:48;48.97;48.07;49.92;;
68945;Laerm;55984;48.790;8.990;2023-09-30T00:39:13;48.95;47.91;49.98;;
68945;Laerm;55984;48.790;8.990;2023-09-30T00:41:39;48.95;48.05;50.01;;
68945;Laerm;55984;48.790;8.990;2023-09-30T00:44:06;48.96;47.78;49.84;;
68945;Laerm;55984;48.790;8.990;2023-09-30T00:46:37;48.96;48.10;49.86;;
68945;Laerm;55984;48.790;8.990;2023-09-30T00:49:03;48.97;47.72;49.91;;
68945;Laerm;55984;48.790;8.990;2023-09-30T00:51:30;48.97;47.95;49.92;;
68945;Laerm;55984;48.790;8.990;2023-09-30T00:53:59;48.97;47.81;49.89;;
68945;Laerm;55984;48.790;8.990;2023-09-30T00:56:26;48.97;48.14;49.94;;
68945;Laerm;55984;48.790;8.990;2023-09-30T00:58:53;48.97;48.03;49.78;;
68945;Laerm;55984;48.790;8.990;2023-09-30T01:01:22;48.98;47.94;49.98;;
68945;Laerm;55984;48.790;8.990;2023-09-30T01:03:48;48.97;48.01;50.15;;
68945;Laerm;55984;48.790;8.990;2023-09-30T01:06:14;48.98;48.16;50.02;;
68945;Laerm;55984;48.790;8.990;2023-09-30T01:08:41;48.98;48.08;49.83;;
68945;Laerm;55984;48.790;8.990;2023-09-30T01:11:07;48.98;48.03;49.87;;
68945;Laerm;55984;48.790;8.990;2023-09-30T01:13:35;48.97;47.95;49.87;;
68945;Laerm;55984;48.790;8.990;2023-09-30T01:16:08;48.99;47.91;49.92;;
68945;Laerm;55984;48.790;8.990;2023-09-30T01:18:38;48.98;48.09;50.00;;
68945;Laerm;55984;48.790;8.990;2023-09-30T01:21:05;49.00;47.95;49.99;;
68945;Laerm;55984;48.790;8.990;2023-09-30T01:23:32;48.99;48.02;50.11;;
68945;Laerm;55984;48.790;8.990;2023-09-30T01:26:10;48.99;47.97;49.93;;
68945;Laerm;55984;48.790;8.990;2023-09-30T01:28:37;49.00;47.93;50.03;;
68945;Laerm;55984;48.790;8.990;2023-09-30T01:31:04;48.98;48.14;49.92;;
68945;Laerm;55984;48.790;8.990;2023-09-30T01:33:31;48.98;48.13;50.03;;
68945;Laerm;55984;48.790;8.990;2023-09-30T01:35:57;49.02;48.16;49.93;;
68945;Laerm;55984;48.790;8.990;2023-09-30T01:38:25;48.98;48.00;49.87;;
68945;Laerm;55984;48.790;8.990;2023-09-30T01:40:51;49.00;47.84;49.92;;
68945;Laerm;55984;48.790;8.990;2023-09-30T01:43:17;48.99;48.01;49.93;;
68945;Laerm;55984;48.790;8.990;2023-09-30T01:45:45;48.98;47.85;50.09;;
68945;Laerm;55984;48.790;8.990;2023-09-30T01:48:13;49.00;47.98;50.11;;
68945;Laerm;55984;48.790;8.990;2023-09-30T01:50:39;49.00;47.94;49.84;;
68945;Laerm;55984;48.790;8.990;2023-09-30T01:53:06;48.98;47.93;49.85;;
68945;Laerm;55984;48.790;8.990;2023-09-30T01:55:36;49.00;47.95;50.13;;
68945;Laerm;55984;48.790;8.990;2023-09-30T01:58:02;49.00;47.79;49.93;;
68945;Laerm;55984;48.790;8.990;2023-09-30T02:00:28;48.98;47.97;49.90;;
68945;Laerm;55984;48.790;8.990;2023-09-30T02:02:57;48.99;48.09;49.85;;
68945;Laerm;55984;48.790;8.990;2023-09-30T02:05:23;48.98;48.00;50.00;;
68945;Laerm;55984;48.790;8.990;2023-09-30T02:07:50;48.99;48.05;49.85;;
68945;Laerm;55984;48.790;8.990;2023-09-30T02:10:17;49.01;48.08;50.04;;
68945;Laerm;55984;48.790;8.990;2023-09-30T02:12:46;49.00;47.97;49.79;;
68945;Laerm;55984;48.790;8.990;2023-09-30T02:15:13;49.02;48.05;50.31;;
68945;Laerm;55984;48.790;8.990;2023-09-30T02:17:39;48.98;47.80;49.90;;
68945;Laerm;55984;48.790;8.990;2023-09-30T02:20:10;49.00;47.92;49.99;;
68945;Laerm;55984;48.790;8.990;2023-09-30T02:22:41;48.98;47.83;49.89;;
68945;Laerm;55984;48.790;8.990;2023-09-30T02:25:07;48.97;48.04;50.06;;
68945;Laerm;55984;48.790;8.990;2023-09-30T02:27:33;49.01;47.86;50.14;;
68945;Laerm;55984;48.790;8.990;2023-09-30T02:29:59;48.99;47.96;50.00;;
68945;Laerm;55984;48.790;8.990;2023-09-30T02:32:25;49.01;48.09;50.05;;
68945;Laerm;55984;48.790;8.990;2023-09-30T05:25:35;48.94;47.97;49.86;;
68945;Laerm;55984;48.790;8.990;2023-09-30T05:28:41;48.94;47.97;50.12;;
68945;Laerm;55984;48.790;8.990;2023-09-30T05:31:18;48.96;47.77;50.12;;
68945;Laerm;55984;48.790;8.990;2023-09-30T05:34:32;48.94;47.78;49.90;;
68945;Laerm;55984;48.790;8.990;2023-09-30T05:37:08;48.92;47.91;49.92;;
68945;Laerm;55984;48.790;8.990;2023-09-30T05:39:56;48.93;47.95;50.03;;
68945;Laerm;55984;48.790;8.990;2023-09-30T05:42:22;48.92;47.82;49.81;;
68945;Laerm;55984;48.790;8.990;2023-09-30T05:44:49;48.94;47.77;49.98;;
68945;Laerm;55984;48.790;8.990;2023-09-30T05:47:16;48.94;47.63;50.02;;
68945;Laerm;55984;48.790;8.990;2023-09-30T05:49:43;48.93;47.76;49.94;;
68945;Laerm;55984;48.790;8.990;2023-09-30T05:52:09;48.91;47.91;49.86;;
68945;Laerm;55984;48.790;8.990;2023-09-30T05:54:37;48.94;47.80;50.31;;
68945;Laerm;55984;48.790;8.990;2023-09-30T05:57:03;48.93;47.95;50.00;;
68945;Laerm;55984;48.790;8.990;2023-09-30T05:59:30;48.95;47.73;50.27;;
68945;Laerm;55984;48.790;8.990;2023-09-30T06:01:59;48.95;47.87;49.93;;
68945;Laerm;55984;48.790;8.990;2023-09-30T06:04:26;48.95;47.91;49.91;;
68945;Laerm;55984;48.790;8.990;2023-09-30T06:06:53;48.96;47.94;49.86;;
68945;Laerm;55984;48.790;8.990;2023-09-30T06:09:20;48.95;48.04;50.08;;
68945;Laerm;55984;48.790;8.990;2023-09-30T06:11:50;48.93;47.75;49.81;;
68945;Laerm;55984;48.790;8.990;2023-09-30T06:14:16;48.96;47.91;50.01;;
68945;Laerm;55984;48.790;8.990;2023-09-30T06:16:42;48.95;47.81;49.94;;
68945;Laerm;55984;48.790;8.990;2023-09-30T06:19:09;48.96;48.04;49.86;;
68945;Laerm;55984;48.790;8.990;2023-09-30T06:21:36;48.95;47.97;49.94;;
68945;Laerm;55984;48.790;8.990;2023-09-30T06:24:02;48.98;48.03;49.82;;
68945;Laerm;55984;48.790;8.990;2023-09-30T06:26:28;48.97;47.95;49.83;;
68945;Laerm;55984;48.790;8.990;2023-09-30T06:28:55;48.99;47.77;50.12;;
68945;Laerm;55984;48.790;8.990;2023-09-30T06:31:22;48.99;47.75;49.93;;
68945;Laerm;55984;48.790;8.990;2023-09-30T06:33:48;48.98;47.68;50.08;;
68945;Laerm;55984;48.790;8.990;2023-09-30T06:36:14;48.97;47.99;50.03;;
68945;Laerm;55984;48.790;8.990;2023-09-30T06:38:43;48.97;47.87;49.87;;
68945;Laerm;55984;48.790;8.990;2023-09-30T06:41:16;48.98;47.86;49.81;;
68945;Laerm;55984;48.790;8.990;2023-09-30T06:43:44;49.00;48.14;49.97;;
68945;Laerm;55984;48.790;8.990;2023-09-30T06:46:12;48.99;47.91;50.05;;
68945;Laerm;55984;48.790;8.990;2023-09-30T06:48:39;49.02;47.86;49.94;;
68945;Laerm;55984;48.790;8.990;2023-09-30T06:51:13;49.03;47.99;50.01;;
68945;Laerm;55984;48.790;8.990;2023-09-30T06:53:43;49.03;47.83;49.96;;
68945;Laerm;55984;48.790;8.990;2023-09-30T06:56:09;49.03;48.08;50.07;;
68945;Laerm;55984;48.790;8.990;2023-09-30T06:58:35;49.04;48.15;50.07;;
68945;Laerm;55984;48.790;8.990;2023-09-30T07:01:01;49.05;48.20;49.92;;
68945;Laerm;55984;48.790;8.990;2023-09-30T07:03:27;49.05;47.99;49.95;;
68945;Laerm;55984;48.790;8.990;2023-09-30T07:05:53;49.05;47.95;50.13;;
68945;Laerm;55984;48.790;8.990;2023-09-30T07:08:20;49.06;48.04;50.07;;
68945;Laerm;55984;48.790;8.990;2023-09-30T07:10:47;49.06;47.91;50.05;;
68945;Laerm;55984;48.790;8.990;2023-09-30T07:13:16;49.06;48.08;50.04;;
68945;Laerm;55984;48.790;8.990;2023-09-30T07:15:43;49.07;48.05;50.05;;
68945;Laerm;55984;48.790;8.990;2023-09-30T07:18:09;49.06;48.17;50.04;;
68945;Laerm;55984;48.790;8.990;2023-09-30T07:20:36;49.10;47.85;50.00;;
68945;Laerm;55984;48.790;8.990;2023-09-30T07:23:03;49.09;48.10;50.05;;
68945;Laerm;55984;48.790;8.990;2023-09-30T07:25:31;49.11;48.15;50.01;;
68945;Laerm;55984;48.790;8.990;2023-09-30T07:27:58;49.11;48.10;50.33;;
68945;Laerm;55984;48.790;8.990;2023-09-30T07:30:25;49.11;48.13;50.13;;
68945;Laerm;55984;48.790;8.990;2023-09-30T07:32:51;49.13;48.26;50.09;;
68945;Laerm;55984;48.790;8.990;2023-09-30T07:35:17;49.13;48.08;49.98;;
68945;Laerm;55984;48.790;8.990;2023-09-30T07:37:44;49.11;48.04;50.03;;
68945;Laerm;55984;48.790;8.990;2023-09-30T07:40:11;49.12;48.29;50.08;;
68945;Laerm;55984;48.790;8.990;2023-09-30T07:42:38;49.13;48.10;50.43;;
68945;Laerm;55984;48.790;8.990;2023-09-30T07:45:07;49.13;48.20;50.04;;
68945;Laerm;55984;48.790;8.990;2023-09-30T07:47:36;49.15;47.97;50.00;;
68945;Laerm;55984;48.790;8.990;2023-09-30T07:50:06;49.16;48.18;50.04;;
68945;Laerm;55984;48.790;8.990;2023-09-30T07:52:36;49.16;48.26;49.97;;
68945;Laerm;55984;48.790;8.990;2023-09-30T07:55:17;49.18;48.18;50.20;;
68945;Laerm;55984;48.790;8.990;2023-09-30T07:57:52;49.20;48.13;50.06;;
68945;Laerm;55984;48.790;8.990;2023-09-30T08:00:31;49.19;48.10;50.08;;
68945;Laerm;55984;48.790;8.990;2023-09-30T08:02:59;49.20;48.36;50.30;;
68945;Laerm;55984;48.790;8.990;2023-09-30T08:05:26;49.20;48.27;50.00;;
68945;Laerm;55984;48.790;8.990;2023-09-30T08:07:52;49.21;48.30;50.04;;
68945;Laerm;55984;48.790;8.990;2023-09-30T08:10:19;49.22;48.25;50.08;;
68945;Laerm;55984;48.790;8.990;2023-09-30T08:12:46;49.22;48.41;50.05;;
68945;Laerm;55984;48.790;8.990;2023-09-30T08:15:15;49.22;48.08;50.14;;
68945;Laerm;55984;48.790;8.990;2023-09-30T08:17:41;49.22;48.39;50.13;;
68945;Laerm;55984;48.790;8.990;2023-09-30T08:20:07;49.25;48.40;50.04;;
68945;Laerm;55984;48.790;8.990;2023-09-30T08:22:35;49.25;48.42;50.18;;
68945;Laerm;55984;48.790;8.990;2023-09-30T08:25:01;49.24;48.18;50.16;;
68945;Laerm;55984;48.790;8.990;2023-09-30T08:27:27;49.24;48.34;50.17;;
68945;Laerm;55984;48.790;8.990;2023-09-30T08:29:57;49.23;48.23;50.14;;
68945;Laerm;55984;48.790;8.990;2023-09-30T08:32:33;49.22;48.00;50.17;;
68945;Laerm;55984;48.790;8.990;2023-09-30T08:35:37;49.22;48.34;50.23;;
68945;Laerm;55984;48.790;8.990;2023-09-30T08:38:03;49.21;48.23;50.14;;
68945;Laerm;55984;48.790;8.990;2023-09-30T08:40:30;49.22;48.35;50.25;;
68945;Laerm;55984;48.790;8.990;2023-09-30T08:42:56;49.24;48.25;50.16;;
68945;Laerm;55984;48.790;8.990;2023-09-30T08:45:23;49.25;48.35;49.97;;
68945;Laerm;55984;48.790;8.990;2023-09-30T08:47:50;49.26;48.49;50.15;;
68945;Laerm;55984;48.790;8.990;2023-09-30T08:50:17;49.29;48.40;50.02;;
68945;Laerm;55984;48.790;8.990;2023-09-30T08:52:44;49.30;48.38;50.04;;
68945;Laerm;55984;48.790;8.990;2023-09-30T08:55:11;49.29;48.44;50.13;;
68945;Laerm;55984;48.790;8.990;2023-09-30T08:57:41;49.29;48.49;50.41;;
68945;Laerm;55984;48.790;8.990;2023-09-30T09:02:42;49.32;48.52;50.01;;
68945;Laerm;55984;48.790;8.990;2023-09-30T09:05:09;49.29;48.42;50.17;;
68945;Laerm;55984;48.790;8.990;2023-09-30T09:07:36;49.30;48.58;49.95;;
68945;Laerm;55984;48.790;8.990;2023-09-30T09:10:08;49.29;48.57;50.11;;
68945;Laerm;55984;48.790;8.990;2023-09-30T09:12:35;49.27;48.45;50.02;;
68945;Laerm;55984;48.790;8.990;2023-09-30T09:15:06;49.29;48.51;50.19;;
68945;Laerm;55984;48.790;8.990;2023-09-30T09:17:43;49.27;48.25;49.88;;
68945;Laerm;55984;48.790;8.990;2023-09-30T09:20:16;49.24;48.39;50.05;;
68945;Laerm;55984;48.790;8.990;2023-09-30T09:22:47;49.22;48.53;49.87;;
68945;Laerm;55984;48.790;8.990;2023-09-30T09:25:16;49.20;48.55;50.04;;
68945;Laerm;55984;48.790;8.990;2023-09-30T09:27:42;49.22;48.51;49.94;;
68945;Laerm;55984;48.790;8.990;2023-09-30T09:33:01;49.19;48.52;50.02;;
68945;Laerm;55984;48.790;8.990;2023-09-30T09:35:28;49.17;48.43;49.92;;
68945;Laerm;55984;48.790;8.990;2023-09-30T09:38:00;49.15;48.48;49.79;;
68945;Laerm;55984;48.790;8.990;2023-09-30T09:40:28;49.16;48.44;49.81;;
68945;Laerm;55984;48.790;8.990;2023-09-30T09:42:55;49.17;48.43;49.81;;
68945;Laerm;55984;48.790;8.990;2023-09-30T09:45:23;49.15;48.33;49.92;;
68945;Laerm;55984;48.790;8.990;2023-09-30T09:47:51;49.16;48.45;49.83;;
68945;Laerm;55984;48.790;8.990;2023-09-30T09:50:19;49.17;48.21;49.95;;
68945;Laerm;55984;48.790;8.990;2023-09-30T09:52:48;49.22;48.45;49.85;;
68945;Laerm;55984;48.790;8.990;2023-09-30T09:55:17;49.22;48.47;49.86;;
68945;Laerm;55984;48.790;8.990;2023-09-30T09:57:43;49.21;48.46;49.94;;
68945;Laerm;55984;48.790;8.990;2023-09-30T10:00:24;49.25;48.57;49.97;;
68945;Laerm;55984;48.790;8.990;2023-09-30T10:02:51;49.28;48.42;50.00;;
68945;Laerm;55984;48.790;8.990;2023-09-30T10:05:18;49.28;48.57;50.28;;
68945;Laerm;55984;48.790;8.990;2023-09-30T10:07:54;49.27;48.40;50.16;;
68945;Laerm;55984;48.790;8.990;2023-09-30T10:10:23;49.27;48.39;49.94;;
68945;Laerm;55984;48.790;8.990;2023-09-30T10:12:49;49.28;48.46;50.07;;
68945;Laerm;55984;48.790;8.990;2023-09-30T10:18:00;49.30;48.38;50.05;;
68945;Laerm;55984;48.790;8.990;2023-09-30T10:20:34;49.30;48.55;50.20;;
68945;Laerm;55984;48.790;8.990;2023-09-30T10:23:24;49.30;48.57;49.99;;
68945;Laerm;55984;48.790;8.990;2023-09-30T10:26:14;49.30;48.47;50.11;;
68945;Laerm;55984;48.790;8.990;2023-09-30T10:28:44;49.32;48.44;50.06;;
68945;Laerm;55984;48.790;8.990;2023-09-30T10:31:19;49.31;48.34;50.06;;
68945;Laerm;55984;48.790;8.990;2023-09-30T10:36:30;49.32;48.57;50.01;;
68945;Laerm;55984;48.790;8.990;2023-09-30T10:38:56;49.32;48.51;50.11;;
68945;Laerm;55984;48.790;8.990;2023-09-30T10:46:52;49.31;48.41;50.23;;
68945;Laerm;55984;48.790;8.990;2023-09-30T10:51:54;49.30;48.41;50.10;;
68945;Laerm;55984;48.790;8.990;2023-09-30T10:54:26;49.31;48.45;50.04;;
68945;Laerm;55984;48.790;8.990;2023-09-30T10:56:52;49.28;48.40;50.03;;
68945;Laerm;55984;48.790;8.990;2023-09-30T10:59:20;49.22;48.52;49.90;;
68945;Laerm;55984;48.790;8.990;2023-09-30T11:01:46;49.14;48.43;49.99;;
68945;Laerm;55984;48.790;8.990;2023-09-30T11:04:12;49.11;48.43;49.74;;
68945;Laerm;55984;48.790;8.990;2023-09-30T11:06:44;49.06;48.40;49.70;;
68945;Laerm;55984;48.790;8.990;2023-09-30T11:09:15;49.00;48.38;49.59;;
68945;Laerm;55984;48.790;8.990;2023-09-30T11:11:43;48.96;48.31;49.66;;
68945;Laerm;55984;48.790;8.990;2023-09-30T11:14:30;48.91;48.29;49.46;;
68945;Laerm;55984;48.790;8.990;2023-09-30T11:17:02;48.90;48.21;49.45;;
68945;Laerm;55984;48.790;8.990;2023-09-30T11:19:45;48.86;48.23;49.64;;
68945;Laerm;55984;48.790;8.990;2023-09-30T11:22:12;48.94;48.19;49.61;;
68945;Laerm;55984;48.790;8.990;2023-09-30T11:24:39;49.06;48.29;49.75;;
68945;Laerm;55984;48.790;8.990;2023-09-30T11:27:05;49.14;48.40;50.21;;
68945;Laerm;55984;48.790;8.990;2023-09-30T11:29:31;49.19;48.47;49.90;;
68945;Laerm;55984;48.790;8.990;2023-09-30T11:31:58;49.22;48.29;50.05;;
68945;Laerm;55984;48.790;8.990;2023-09-30T11:34:34;49.24;48.49;49.87;;
68945;Laerm;55984;48.790;8.990;2023-09-30T11:37:01;49.25;48.59;50.01;;
68945;Laerm;55984;48.790;8.990;2023-09-30T11:39:29;49.26;48.33;49.91;;
68945;Laerm;55984;48.790;8.990;2023-09-30T11:41:56;49.22;48.37;49.84;;
68945;Laerm;55984;48.790;8.990;2023-09-30T11:44:23;49.23;48.35;50.27;;
68945;Laerm;55984;48.790;8.990;2023-09-30T11:46:57;49.27;48.56;49.99;;
68945;Laerm;55984;48.790;8.990;2023-09-30T11:49:25;49.26;48.56;50.19;;
68945;Laerm;55984;48.790;8.990;2023-09-30T11:51:52;49.17;48.46;49.83;;
68945;Laerm;55984;48.790;8.990;2023-09-30T11:54:18;49.11;48.50;49.78;;
68945;Laerm;55984;48.790;8.990;2023-09-30T11:56:44;49.02;48.31;49.81;;
68945;Laerm;55984;48.790;8.990;2023-09-30T11:59:12;48.95;48.25;49.74;;
68945;Laerm;55984;48.790;8.990;2023-09-30T12:01:38;48.91;48.31;49.57;;
68945;Laerm;55984;48.790;8.990;2023-09-30T12:04:04;48.91;48.20;49.55;;
68945;Laerm;55984;48.790;8.990;2023-09-30T12:06:31;48.91;48.11;49.59;;
68945;Laerm;55984;48.790;8.990;2023-09-30T12:08:59;48.94;48.11;49.61;;
68945;Laerm;55984;48.790;8.990;2023-09-30T12:11:25;48.95;48.28;49.60;;
68945;Laerm;55984;48.790;8.990;2023-09-30T12:13:51;48.96;48.35;49.59;;
68945;Laerm;55984;48.790;8.990;2023-09-30T12:16:18;48.96;48.29;49.53;;
68945;Laerm;55984;48.790;8.990;2023-09-30T12:18:45;49.01;48.28;49.70;;
68945;Laerm;55984;48.790;8.990;2023-09-30T12:21:11;49.04;48.34;49.76;;
68945;Laerm;55984;48.790;8.990;2023-09-30T12:23:45;49.15;48.53;49.97;;
68945;Laerm;55984;48.790;8.990;2023-09-30T12:26:11;49.20;48.50;49.84;;
68945;Laerm;55984;48.790;8.990;2023-09-30T12:28:37;49.22;48.45;49.98;;
68945;Laerm;55984;48.790;8.990;2023-09-30T12:31:05;49.22;48.55;50.04;;
68945;Laerm;55984;48.790;8.990;2023-09-30T12:33:31;49.19;48.53;50.08;;
68945;Laerm;55984;48.790;8.990;2023-09-30T12:35:58;49.15;48.37;49.81;;
68945;Laerm;55984;48.790;8.990;2023-09-30T12:38:24;49.14;48.16;49.90;;
68945;Laerm;55984;48.790;8.990;2023-09-30T12:40:51;49.13;48.26;49.81;;
68945;Laerm;55984;48.790;8.990;2023-09-30T12:43:18;49.08;48.18;49.93;;
68945;Laerm;55984;48.790;8.990;2023-09-30T12:45:45;49.06;48.37;49.72;;
68945;Laerm;55984;48.790;8.990;2023-09-30T12:48:11;49.00;48.40;49.69;;
68945;Laerm;55984;48.790;8.990;2023-09-30T12:50:37;48.98;48.27;49.72;;
68945;Laerm;55984;48.790;8.990;2023-09-30T12:53:03;49.01;48.43;49.70;;
68945;Laerm;55984;48.790;8.990;2023-09-30T12:55:29;49.02;48.34;49.66;;
68945;Laerm;55984;48.790;8.990;2023-09-30T12:57:55;49.10;48.47;49.71;;
68945;Laerm;55984;48.790;8.990;2023-09-30T13:00:21;49.17;48.48;49.83;;
68945;Laerm;55984;48.790;8.990;2023-09-30T13:02:47;49.20;48.55;49.96;;
68945;Laerm;55984;48.790;8.990;2023-09-30T13:05:14;49.15;48.34;49.89;;
68945;Laerm;55984;48.790;8.990;2023-09-30T13:07:42;49.12;48.33;50.00;;
68945;Laerm;55984;48.790;8.990;2023-09-30T13:10:08;49.20;48.53;49.93;;
68945;Laerm;55984;48.790;8.990;2023-09-30T13:12:35;49.22;48.52;50.01;;
68945;Laerm;55984;48.790;8.990;2023-09-30T13:15:01;49.19;48.57;49.83;;
68945;Laerm;55984;48.790;8.990;2023-09-30T13:17:27;49.17;48.45;49.93;;
68945;Laerm;55984;48.790;8.990;2023-09-30T13:19:54;49.15;48.29;49.84;;
68945;Laerm;55984;48.790;8.990;2023-09-30T13:22:20;49.19;48.48;49.98;;
68945;Laerm;55984;48.790;8.990;2023-09-30T13:24:46;49.18;48.47;49.82;;
68945;Laerm;55984;48.790;8.990;2023-09-30T13:27:12;49.19;48.46;49.76;;
68945;Laerm;55984;48.790;8.990;2023-09-30T13:29:42;49.22;48.45;49.98;;
68945;Laerm;55984;48.790;8.990;2023-09-30T13:32:09;49.16;48.56;49.96;;
68945;Laerm;55984;48.790;8.990;2023-09-30T13:34:35;49.13;48.41;49.84;;
68945;Laerm;55984;48.790;8.990;2023-09-30T13:37:01;49.12;48.54;49.78;;
68945;Laerm;55984;48.790;8.990;2023-09-30T13:39:28;49.14;48.36;49.88;;
68945;Laerm;55984;48.790;8.990;2023-09-30T13:41:54;49.13;48.31;49.80;;
68945;Laerm;55984;48.790;8.990;2023-09-30T13:44:20;49.11;48.48;49.77;;
68945;Laerm;55984;48.790;8.990;2023-09-30T13:46:47;49.11;48.47;49.69;;
68945;Laerm;55984;48.790;8.990;2023-09-30T13:49:13;49.09;48.38;49.85;;
68945;Laerm;55984;48.790;8.990;2023-09-30T13:51:39;49.13;48.41;49.82;;
68945;Laerm;55984;48.790;8.990;2023-09-30T13:54:06;49.13;48.40;49.89;;
68945;Laerm;55984;48.790;8.990;2023-09-30T13:56:33;49.16;48.52;49.79;;
68945;Laerm;55984;48.790;8.990;2023-09-30T13:58:59;49.18;48.33;49.95;;
68945;Laerm;55984;48.790;8.990;2023-09-30T14:01:25;49.23;48.60;50.17;;
68945;Laerm;55984;48.790;8.990;2023-09-30T14:03:52;49.23;48.42;49.91;;
68945;Laerm;55984;48.790;8.990;2023-09-30T14:06:22;49.23;48.45;50.09;;
68945;Laerm;55984;48.790;8.990;2023-09-30T14:08:48;49.25;48.46;49.93;;
68945;Laerm;55984;48.790;8.990;2023-09-30T14:11:14;49.26;48.63;50.07;;
68945;Laerm;55984;48.790;8.990;2023-09-30T14:13:40;49.27;48.40;50.28;;
68945;Laerm;55984;48.790;8.990;2023-09-30T14:16:08;49.27;48.62;50.22;;
68945;Laerm;55984;48.790;8.990;2023-09-30T14:18:34;49.29;48.50;50.00;;
68945;Laerm;55984;48.790;8.990;2023-09-30T14:21:01;49.29;48.46;50.02;;
68945;Laerm;55984;48.790;8.990;2023-09-30T14:23:27;49.28;48.39;50.07;;
68945;Laerm;55984;48.790;8.990;2023-09-30T14:25:57;49.29;48.42;49.99;;
68945;Laerm;55984;48.790;8.990;2023-09-30T14:28:24;49.28;48.45;50.26;;
68945;Laerm;55984;48.790;8.990;2023-09-30T14:30:50;49.28;48.39;50.19;;
68945;Laerm;55984;48.790;8.990;2023-09-30T14:33:16;49.28;48.49;50.11;;
68945;Laerm;55984;48.790;8.990;2023-09-30T14:35:45;49.29;48.35;50.01;;
68945;Laerm;55984;48.790;8.990;2023-09-30T14:38:11;49.30;48.53;50.06;;
68945;Laerm;55984;48.790;8.990;2023-09-30T18:49:27;48.90;47.73;49.89;;
68945;Laerm;55984;48.790;8.990;2023-09-30T18:51:53;48.90;48.06;49.90;;
68945;Laerm;55984;48.790;8.990;2023-09-30T18:54:19;48.89;47.89;49.92;;
68945;Laerm;55984;48.790;8.990;2023-09-30T18:56:48;48.89;47.89;50.22;;
68945;Laerm;55984;48.790;8.990;2023-09-30T18:59:16;48.90;47.87;49.88;;
68945;Laerm;55984;48.790;8.990;2023-09-30T19:01:47;48.90;47.76;49.82;;
68945;Laerm;55984;48.790;8.990;2023-09-30T19:04:14;48.87;47.90;49.91;;
68945;Laerm;55984;48.790;8.990;2023-09-30T19:06:43;48.87;47.76;49.85;;
68945;Laerm;55984;48.790;8.990;2023-09-30T19:09:33;48.89;47.78;49.96;;
